Time;durP1;ratioP1;P1;durP2;ratioP2;P2;SDS_P1;SDS_P2;PMS_P1;PMS_P2;Temp;Humidity;BMP_temperature;BMP_pressure;BME280_temperature;BME280_humidity;BME280_pressure;Samples;Min_cycle;Max_cycle;Signal;HPM_P1;HPM_P2
2023/05/08 00:02:01;;;;;;;;;;;;;;;20.58;61.80;97069.32;630545;225;67202;-60
2023/05/08 00:04:28;;;;;;;;;;;;;;;20.57;60.35;97063.19;630549;225;67038;-60
2023/05/08 00:06:56;;;;;;;;;;;;;;;20.57;61.54;97071.20;630528;225;62989;-60
2023/05/08 00:09:23;;;;;;;;;;;;;;;20.57;62.38;97065.85;630555;224;64836;-60
2023/05/08 00:11:51;;;;;;;;;;;;;;;20.58;61.43;97066.65;630510;225;64943;-61
2023/05/08 00:14:19;;;;;;;;;;;;;;;20.58;62.64;97069.32;630562;225;62983;-61
2023/05/08 00:16:46;;;;;;;;;;;;;;;20.56;61.57;97061.56;630554;225;64827;-61
2023/05/08 00:19:13;;;;;;;;;;;;;;;20.57;62.97;97065.03;630552;225;64912;-61
2023/05/08 00:21:41;;;;;;;;;;;;;;;20.56;63.17;97064.23;630507;225;63784;-61
2023/05/08 00:24:09;;;;;;;;;;;;;;;20.56;62.34;97061.56;630556;225;65039;-61
2023/05/08 00:26:36;;;;;;;;;;;;;;;20.55;61.64;97064.52;630536;225;65080;-61
2023/05/08 00:29:04;;;;;;;;;;;;;;;20.54;60.87;97058.38;630535;225;64984;-61
2023/05/08 00:31:31;;;;;;;;;;;;;;;20.55;62.58;97053.84;630538;225;65649;-61
2023/05/08 00:33:59;;;;;;;;;;;;;;;20.55;62.21;97056.51;630540;225;67739;-61
2023/05/08 00:36:28;;;;;;;;;;;;;;;20.54;61.30;97055.71;630571;225;64973;-61
2023/05/08 00:38:55;;;;;;;;;;;;;;;20.55;61.61;97062.64;630564;225;66962;-61
2023/05/08 00:41:23;;;;;;;;;;;;;;;20.55;62.83;97061.84;630530;225;66880;-60
2023/05/08 00:43:51;;;;;;;;;;;;;;;20.53;61.92;97062.10;630522;225;65617;-60
2023/05/08 00:46:18;;;;;;;;;;;;;;;20.53;61.75;97062.10;630511;225;67080;-60
2023/05/08 00:48:46;;;;;;;;;;;;;;;20.54;62.29;97065.56;630586;225;66900;-61
2023/05/08 00:51:15;;;;;;;;;;;;;;;20.54;62.29;97070.91;630522;225;64892;-61
2023/05/08 00:53:44;;;;;;;;;;;;;;;20.53;61.53;97071.95;630548;225;67027;-60
2023/05/08 00:56:13;;;;;;;;;;;;;;;20.53;62.14;97078.12;630543;225;67052;-60
2023/05/08 00:58:40;;;;;;;;;;;;;;;20.52;61.63;97081.84;630522;225;64879;-61
2023/05/08 01:01:08;;;;;;;;;;;;;;;20.52;62.44;97081.04;630592;225;64678;-61
2023/05/08 01:03:37;;;;;;;;;;;;;;;20.52;62.71;97084.50;630576;225;64546;-63
2023/05/08 01:06:05;;;;;;;;;;;;;;;20.52;61.71;97081.04;630547;225;62743;-61
2023/05/08 01:08:33;;;;;;;;;;;;;;;20.51;62.44;97077.55;630541;225;65640;-61
2023/05/08 01:11:05;;;;;;;;;;;;;;;20.51;62.37;97080.22;632484;224;65275;-61
2023/05/08 01:13:33;;;;;;;;;;;;;;;20.50;61.81;97072.48;632631;224;62855;-61
2023/05/08 01:16:06;;;;;;;;;;;;;;;20.50;61.85;97070.61;632507;224;67010;-61
2023/05/08 01:18:38;;;;;;;;;;;;;;;20.50;61.56;97070.61;632620;224;65475;-60
2023/05/08 01:21:10;;;;;;;;;;;;;;;20.51;63.70;97074.08;632744;223;64886;-61
2023/05/08 01:23:45;;;;;;;;;;;;;;;20.49;61.30;97074.36;632648;224;67072;-62
2023/05/08 01:26:17;;;;;;;;;;;;;;;20.49;62.05;97071.69;632742;224;66864;-60
2023/05/08 01:28:52;;;;;;;;;;;;;;;20.50;63.40;97077.83;632736;224;63669;-61
2023/05/08 01:31:21;;;;;;;;;;;;;;;20.49;62.66;97074.36;632821;224;64667;-61
2023/05/08 01:34:02;;;;;;;;;;;;;;;20.49;62.73;97078.88;628181;224;64860;-61
2023/05/08 01:36:31;;;;;;;;;;;;;;;20.49;64.25;97079.70;632726;224;62726;-61
2023/05/08 01:39:10;;;;;;;;;;;;;;;20.47;62.38;97078.36;632593;224;65254;-60
2023/05/08 01:41:39;;;;;;;;;;;;;;;20.47;61.76;97076.48;632330;224;64740;-59
2023/05/08 01:44:14;;;;;;;;;;;;;;;20.47;61.09;97073.82;632767;224;64854;-59
2023/05/08 01:46:42;;;;;;;;;;;;;;;20.46;60.83;97079.41;632819;224;67666;-59
2023/05/08 01:49:10;;;;;;;;;;;;;;;20.47;61.98;97073.02;632762;224;64961;-59
2023/05/08 01:51:46;;;;;;;;;;;;;;;20.47;62.63;97081.83;632766;224;65685;-59
2023/05/08 01:54:17;;;;;;;;;;;;;;;20.47;62.79;97075.70;631711;224;66633;-60
2023/05/08 01:56:46;;;;;;;;;;;;;;;20.45;61.67;97078.61;632797;224;64702;-60
2023/05/08 01:59:15;;;;;;;;;;;;;;;20.46;62.53;97072.23;632805;224;63703;-59
2023/05/08 02:01:44;;;;;;;;;;;;;;;20.45;61.63;97078.61;632791;224;64617;-60
2023/05/08 02:04:12;;;;;;;;;;;;;;;20.46;62.13;97079.41;632779;224;66804;-60
2023/05/08 02:06:40;;;;;;;;;;;;;;;20.45;61.94;97072.48;632777;224;64847;-60
2023/05/08 02:09:09;;;;;;;;;;;;;;;20.45;61.61;97075.95;632741;224;64712;-60
2023/05/08 02:11:37;;;;;;;;;;;;;;;20.44;61.82;97079.70;632810;224;66822;-60
2023/05/08 02:14:07;;;;;;;;;;;;;;;20.44;62.60;97070.89;632842;224;64885;-60
2023/05/08 02:16:36;;;;;;;;;;;;;;;20.45;62.69;97069.81;632768;224;66758;-61
2023/05/08 02:19:04;;;;;;;;;;;;;;;20.43;62.00;97070.06;632803;224;64755;-61
2023/05/08 02:21:33;;;;;;;;;;;;;;;20.44;63.50;97061.01;632749;224;65260;-62
2023/05/08 02:24:01;;;;;;;;;;;;;;;20.44;62.23;97071.69;632772;224;67206;-61
2023/05/08 02:26:28;;;;;;;;;;;;;;;20.44;62.33;97074.35;632795;224;67346;-61
2023/05/08 02:28:58;;;;;;;;;;;;;;;20.44;62.73;97079.70;632763;224;64853;-61
2023/05/08 02:31:27;;;;;;;;;;;;;;;20.43;63.06;97075.40;632749;224;65043;-61
2023/05/08 02:33:56;;;;;;;;;;;;;;;20.42;62.15;97076.48;632761;224;66911;-61
2023/05/08 02:36:27;;;;;;;;;;;;;;;20.43;63.39;97078.07;632775;224;65070;-61
2023/05/08 02:38:57;;;;;;;;;;;;;;;20.43;63.60;97074.61;632781;224;67297;-61
2023/05/08 02:41:26;;;;;;;;;;;;;;;20.43;62.29;97079.95;632839;224;67000;-61
2023/05/08 02:43:54;;;;;;;;;;;;;;;20.42;61.99;97084.48;632745;224;62918;-61
2023/05/08 02:46:38;;;;;;;;;;;;;;;20.42;62.92;97073.81;632789;224;66954;-61
2023/05/08 02:49:10;;;;;;;;;;;;;;;20.42;62.70;97078.35;632776;224;64426;-61
2023/05/08 02:51:42;;;;;;;;;;;;;;;20.41;62.99;97072.22;632504;224;62887;-61
2023/05/08 02:54:12;;;;;;;;;;;;;;;20.41;63.08;97074.89;632789;224;67350;-61
2023/05/08 02:56:50;;;;;;;;;;;;;;;20.41;63.37;97080.23;632596;224;67020;-61
2023/05/08 02:59:19;;;;;;;;;;;;;;;20.39;61.41;97085.81;632803;224;66081;-61
2023/05/08 03:01:48;;;;;;;;;;;;;;;20.39;62.41;97085.81;631714;224;67189;-61
2023/05/08 03:04:17;;;;;;;;;;;;;;;20.39;61.52;97082.35;632785;224;67690;-61
2023/05/08 03:06:46;;;;;;;;;;;;;;;20.40;62.37;97089.28;631908;224;65291;-61
2023/05/08 03:09:16;;;;;;;;;;;;;;;20.39;61.09;97090.36;632798;224;67166;-61
2023/05/08 03:11:45;;;;;;;;;;;;;;;20.38;62.07;97086.89;632554;224;67488;-61
2023/05/08 03:14:14;;;;;;;;;;;;;;;20.39;63.14;97087.69;632819;224;64939;-61
2023/05/08 03:16:45;;;;;;;;;;;;;;;20.39;62.94;97090.36;632832;224;46084;-61
2023/05/08 03:19:14;;;;;;;;;;;;;;;20.38;62.32;97088.77;632764;224;64996;-60
2023/05/08 03:21:43;;;;;;;;;;;;;;;20.39;62.45;97085.02;631894;224;63005;-61
2023/05/08 03:24:12;;;;;;;;;;;;;;;20.39;63.30;97090.36;632797;224;67179;-61
2023/05/08 03:26:40;;;;;;;;;;;;;;;20.37;63.14;97087.94;632783;224;64646;-60
2023/05/08 03:29:09;;;;;;;;;;;;;;;20.38;63.05;97083.43;632823;224;62756;-60
2023/05/08 03:31:37;;;;;;;;;;;;;;;20.37;61.72;97087.14;632816;224;67217;-60
2023/05/08 03:34:05;;;;;;;;;;;;;;;20.37;61.39;97089.81;632815;224;66675;-60
2023/05/08 03:36:33;;;;;;;;;;;;;;;20.37;61.51;97084.48;632814;224;62954;-59
2023/05/08 03:39:00;;;;;;;;;;;;;;;20.36;62.35;97085.55;632811;224;67727;-59
2023/05/08 03:41:28;;;;;;;;;;;;;;;20.37;63.02;97095.16;632758;224;68376;-59
2023/05/08 03:43:56;;;;;;;;;;;;;;;20.36;62.09;97090.89;632817;224;66066;-59
2023/05/08 03:46:25;;;;;;;;;;;;;;;20.36;62.52;97090.89;632775;224;67015;-59
2023/05/08 03:48:53;;;;;;;;;;;;;;;20.36;61.50;97090.89;632808;224;64502;-60
2023/05/08 03:51:21;;;;;;;;;;;;;;;20.35;62.79;97089.27;632807;224;65171;-60
2023/05/08 03:53:49;;;;;;;;;;;;;;;20.34;62.02;97099.16;632806;224;64944;-60
2023/05/08 03:56:17;;;;;;;;;;;;;;;20.34;61.83;97096.48;632794;224;67373;-60
2023/05/08 03:58:47;;;;;;;;;;;;;;;20.35;62.27;97097.28;632805;224;65043;-59
2023/05/08 04:01:19;;;;;;;;;;;;;;;20.35;61.24;97097.28;632795;224;65283;-59
2023/05/08 04:03:57;;;;;;;;;;;;;;;20.34;61.38;97093.02;632675;224;64615;-58
2023/05/08 04:06:32;;;;;;;;;;;;;;;20.34;61.39;97096.48;632681;224;64944;-59
2023/05/08 04:09:02;;;;;;;;;;;;;;;20.33;61.66;97096.77;632707;224;67941;-59
2023/05/08 04:11:31;;;;;;;;;;;;;;;20.32;61.97;97095.94;632734;224;73253;-59
2023/05/08 04:14:00;;;;;;;;;;;;;;;20.33;62.02;97102.10;632793;224;65037;-59
2023/05/08 04:16:29;;;;;;;;;;;;;;;20.33;62.40;97107.44;632808;224;67120;-59
2023/05/08 04:19:04;;;;;;;;;;;;;;;20.32;62.25;97101.27;632805;224;65069;-59
2023/05/08 04:21:33;;;;;;;;;;;;;;;20.33;62.13;97107.44;632721;224;62554;-59
2023/05/08 04:24:02;;;;;;;;;;;;;;;20.31;61.80;97099.69;632782;224;67642;-59
2023/05/08 04:26:31;;;;;;;;;;;;;;;20.32;62.30;97098.61;632746;224;64964;-59
2023/05/08 04:28:59;;;;;;;;;;;;;;;20.32;62.23;97098.61;632743;224;65081;-58
2023/05/08 04:31:27;;;;;;;;;;;;;;;20.30;60.81;97098.09;632728;224;67990;-59
2023/05/08 04:33:54;;;;;;;;;;;;;;;20.31;62.43;97096.22;632810;224;67203;-59
2023/05/08 04:36:22;;;;;;;;;;;;;;;20.32;63.04;97100.48;632707;224;65155;-59
2023/05/08 04:38:50;;;;;;;;;;;;;;;20.31;61.82;97099.69;632764;224;64849;-59
2023/05/08 04:41:18;;;;;;;;;;;;;;;20.31;60.68;97088.21;632769;224;67097;-59
2023/05/08 04:43:45;;;;;;;;;;;;;;;20.30;61.87;97099.97;632743;224;62748;-59
2023/05/08 04:46:13;;;;;;;;;;;;;;;20.30;60.57;97102.63;632799;224;65533;-59
2023/05/08 04:48:40;;;;;;;;;;;;;;;20.31;62.34;97098.88;632761;224;64648;-59
2023/05/08 04:51:08;;;;;;;;;;;;;;;20.28;61.20;97089.54;632729;224;65216;-59
2023/05/08 04:53:35;;;;;;;;;;;;;;;20.30;61.91;97095.42;632751;224;67029;-59
2023/05/08 04:56:03;;;;;;;;;;;;;;;20.30;63.10;97091.95;632711;224;67862;-60
2023/05/08 04:58:31;;;;;;;;;;;;;;;20.28;62.35;97089.54;632783;224;65019;-60
2023/05/08 05:01:00;;;;;;;;;;;;;;;20.30;63.05;97091.95;632772;224;64955;-60
2023/05/08 05:03:30;;;;;;;;;;;;;;;20.29;61.90;97087.66;632765;224;46017;-60
2023/05/08 05:05:58;;;;;;;;;;;;;;;20.28;62.21;97083.41;632749;224;65084;-60
2023/05/08 05:08:27;;;;;;;;;;;;;;;20.28;62.81;97078.86;632645;224;65442;-60
2023/05/08 05:10:55;;;;;;;;;;;;;;;20.28;62.16;97078.07;632733;224;67173;-60
2023/05/08 05:13:23;;;;;;;;;;;;;;;20.28;62.17;97078.07;632779;224;65078;-60
2023/05/08 05:15:53;;;;;;;;;;;;;;;20.27;60.85;97081.78;632753;224;64232;-60
2023/05/08 05:18:21;;;;;;;;;;;;;;;20.27;61.30;97081.78;632544;224;66978;-60
2023/05/08 05:20:49;;;;;;;;;;;;;;;20.28;63.20;97072.73;632746;224;62545;-60
2023/05/08 05:23:16;;;;;;;;;;;;;;;20.25;61.09;97074.06;632797;224;67944;-60
2023/05/08 05:25:44;;;;;;;;;;;;;;;20.26;63.40;97070.31;625820;224;68224;-60
2023/05/08 05:28:13;;;;;;;;;;;;;;;20.26;62.42;97064.18;632759;224;65052;-60
2023/05/08 05:30:40;;;;;;;;;;;;;;;20.26;62.73;97074.86;632760;224;68404;-60
2023/05/08 05:33:08;;;;;;;;;;;;;;;20.25;60.69;97068.72;632802;224;67575;-60
2023/05/08 05:35:36;;;;;;;;;;;;;;;20.24;61.57;97061.77;632749;224;65612;-60
2023/05/08 05:38:04;;;;;;;;;;;;;;;20.25;62.94;97063.39;632823;224;67099;-60
2023/05/08 05:40:31;;;;;;;;;;;;;;;20.24;61.69;97060.97;632788;224;67068;-60
2023/05/08 05:42:59;;;;;;;;;;;;;;;20.25;63.16;97051.91;632758;224;65200;-60
2023/05/08 05:45:27;;;;;;;;;;;;;;;20.25;63.05;97055.38;632737;224;67131;-60
2023/05/08 05:47:55;;;;;;;;;;;;;;;20.24;63.40;97050.30;632776;224;65704;-60
2023/05/08 05:50:23;;;;;;;;;;;;;;;20.26;63.78;97053.50;632816;224;65723;-60
2023/05/08 05:52:51;;;;;;;;;;;;;;;20.23;61.53;97044.16;632780;224;67123;-60
2023/05/08 05:55:19;;;;;;;;;;;;;;;20.24;62.74;97050.30;632759;224;67019;-60
2023/05/08 05:57:47;;;;;;;;;;;;;;;20.23;62.62;97038.03;632747;224;63730;-60
2023/05/08 06:00:16;;;;;;;;;;;;;;;20.23;63.82;97038.83;632764;224;67932;-60
2023/05/08 06:02:45;;;;;;;;;;;;;;;20.22;63.28;97042.57;632563;224;48545;-60
2023/05/08 06:05:14;;;;;;;;;;;;;;;20.21;60.75;97034.81;632832;224;64972;-60
2023/05/08 06:07:42;;;;;;;;;;;;;;;20.23;62.58;97038.03;632817;224;64317;-61
2023/05/08 06:10:10;;;;;;;;;;;;;;;20.22;63.39;97036.44;632693;224;67016;-60
2023/05/08 06:12:37;;;;;;;;;;;;;;;20.22;61.75;97036.44;632810;224;64922;-60
2023/05/08 06:15:05;;;;;;;;;;;;;;;20.21;61.18;97027.61;632817;224;64362;-60
2023/05/08 06:17:33;;;;;;;;;;;;;;;20.22;61.41;97026.56;632829;224;66811;-60
2023/05/08 06:20:01;;;;;;;;;;;;;;;20.22;61.65;97023.89;632797;224;62815;-60
2023/05/08 06:22:28;;;;;;;;;;;;;;;20.23;61.94;97022.02;632764;224;65443;-60
2023/05/08 06:24:56;;;;;;;;;;;;;;;20.22;60.92;97023.09;632746;224;67013;-60
2023/05/08 06:27:24;;;;;;;;;;;;;;;20.23;61.49;97022.02;632793;223;63032;-60
2023/05/08 06:29:56;;;;;;;;;;;;;;;20.22;60.93;97013.22;632843;224;67052;-60
2023/05/08 06:32:21;;;;;;;;;;;;;;;20.24;62.01;97010.27;632526;224;67077;-60
2023/05/08 06:34:49;;;;;;;;;;;;;;;20.24;62.23;97010.27;632755;224;62976;-60
2023/05/08 06:37:16;;;;;;;;;;;;;;;20.24;61.66;97015.60;632740;224;65306;-60
2023/05/08 06:39:44;;;;;;;;;;;;;;;20.24;61.58;97012.94;632780;224;64941;-60
2023/05/08 06:42:11;;;;;;;;;;;;;;;20.24;62.86;97007.59;632795;224;64872;-60
2023/05/08 06:44:39;;;;;;;;;;;;;;;20.24;61.69;97004.92;632755;224;67827;-60
2023/05/08 06:47:07;;;;;;;;;;;;;;;20.24;63.11;97008.39;632766;224;66978;-60
2023/05/08 06:49:37;;;;;;;;;;;;;;;20.24;63.11;97005.72;632743;224;62876;-60
2023/05/08 06:52:05;;;;;;;;;;;;;;;20.23;62.08;97009.47;632784;224;67207;-60
2023/05/08 06:54:32;;;;;;;;;;;;;;;20.24;62.31;97004.92;632812;224;67091;-60
2023/05/08 06:57:00;;;;;;;;;;;;;;;20.24;62.49;97002.26;632778;224;63076;-60
2023/05/08 06:59:27;;;;;;;;;;;;;;;20.24;62.13;97002.26;632739;224;64843;-61
2023/05/08 07:01:55;;;;;;;;;;;;;;;20.24;61.97;96997.72;632795;224;66995;-60
2023/05/08 07:04:22;;;;;;;;;;;;;;;20.26;63.57;97000.13;632743;224;64996;-60
2023/05/08 07:06:50;;;;;;;;;;;;;;;20.25;62.30;97004.67;632765;224;67139;-60
2023/05/08 07:09:17;;;;;;;;;;;;;;;20.24;62.73;97003.05;632777;224;66893;-60
2023/05/08 07:11:45;;;;;;;;;;;;;;;20.24;61.83;97002.26;632772;224;63884;-60
2023/05/08 07:14:12;;;;;;;;;;;;;;;20.25;63.59;96998.55;632743;224;67142;-60
2023/05/08 07:16:40;;;;;;;;;;;;;;;20.25;62.63;96999.34;632756;224;66758;-60
2023/05/08 07:19:07;;;;;;;;;;;;;;;20.24;63.07;97000.39;632748;224;65024;-60
2023/05/08 07:21:35;;;;;;;;;;;;;;;20.23;61.53;97001.47;632811;224;67172;-60
2023/05/08 07:24:02;;;;;;;;;;;;;;;20.25;62.48;97003.88;632726;224;65733;-60
2023/05/08 07:26:30;;;;;;;;;;;;;;;20.24;62.41;97000.39;632742;224;62902;-60
2023/05/08 07:28:58;;;;;;;;;;;;;;;20.24;62.37;97000.39;632758;224;67211;-60
2023/05/08 07:31:26;;;;;;;;;;;;;;;20.24;62.55;97003.05;632745;224;67073;-60
2023/05/08 07:33:53;;;;;;;;;;;;;;;20.23;62.45;96996.13;632813;224;65052;-60
2023/05/08 07:36:21;;;;;;;;;;;;;;;20.23;61.00;96990.80;632750;224;67192;-60
2023/05/08 07:38:49;;;;;;;;;;;;;;;20.24;62.68;96999.59;632758;224;67034;-60
2023/05/08 07:41:16;;;;;;;;;;;;;;;20.24;62.15;96994.25;632802;224;65000;-60
2023/05/08 07:43:44;;;;;;;;;;;;;;;20.25;63.86;96994.00;632714;224;66881;-59
2023/05/08 07:46:18;;;;;;;;;;;;;;;20.24;62.60;96996.92;632787;224;67011;-58
2023/05/08 07:48:45;;;;;;;;;;;;;;;20.24;62.90;96991.59;632738;224;62970;-59
2023/05/08 07:51:13;;;;;;;;;;;;;;;20.24;63.86;96992.38;632735;224;67263;-59
2023/05/08 07:53:41;;;;;;;;;;;;;;;20.24;63.19;96994.25;632768;224;67004;-59
2023/05/08 07:56:08;;;;;;;;;;;;;;;20.25;64.14;96995.88;632721;223;63809;-58
2023/05/08 07:58:36;;;;;;;;;;;;;;;20.24;62.46;96996.92;632738;224;67101;-59
2023/05/08 08:01:03;;;;;;;;;;;;;;;20.24;63.22;96991.59;632811;224;66860;-59
2023/05/08 08:03:31;;;;;;;;;;;;;;;20.24;62.67;96994.25;632724;224;64948;-59
2023/05/08 08:05:58;;;;;;;;;;;;;;;20.24;63.50;96991.59;632760;224;67282;-59
2023/05/08 08:08:26;;;;;;;;;;;;;;;20.23;63.30;96985.45;632718;223;66985;-59
2023/05/08 08:10:53;;;;;;;;;;;;;;;20.23;62.86;96998.00;630714;224;63036;-58
2023/05/08 08:13:21;;;;;;;;;;;;;;;20.23;63.34;96996.13;630530;225;67230;-59
2023/05/08 08:15:48;;;;;;;;;;;;;;;20.24;62.96;96988.92;630531;225;64912;-59
2023/05/08 08:18:16;;;;;;;;;;;;;;;20.22;61.63;96991.08;630500;225;65032;-58
2023/05/08 08:20:44;;;;;;;;;;;;;;;20.22;62.40;96997.20;630491;225;67179;-58
2023/05/08 08:23:11;;;;;;;;;;;;;;;20.22;61.78;96983.86;630472;225;67078;-58
2023/05/08 08:25:39;;;;;;;;;;;;;;;20.23;63.12;96995.33;630539;225;65041;-58
2023/05/08 08:28:08;;;;;;;;;;;;;;;20.23;61.91;96995.33;630495;225;67190;-58
2023/05/08 08:30:35;;;;;;;;;;;;;;;20.23;63.18;96995.33;630554;225;64398;-59
2023/05/08 08:33:04;;;;;;;;;;;;;;;20.23;63.16;96998.00;630521;225;62934;-60
2023/05/08 08:35:32;;;;;;;;;;;;;;;20.23;63.34;96995.33;630460;225;67148;-59
2023/05/08 08:38:00;;;;;;;;;;;;;;;20.22;63.19;96997.20;630562;225;65248;-59
2023/05/08 08:40:27;;;;;;;;;;;;;;;20.22;62.42;96994.54;630521;225;63002;-59
2023/05/08 08:42:55;;;;;;;;;;;;;;;20.22;61.86;96996.41;630487;225;67058;-59
2023/05/08 08:45:23;;;;;;;;;;;;;;;20.22;62.34;96993.74;630529;225;66976;-59
2023/05/08 08:47:52;;;;;;;;;;;;;;;20.22;62.52;96988.41;630517;225;65131;-59
2023/05/08 08:50:20;;;;;;;;;;;;;;;20.22;62.29;96993.74;630453;225;64969;-59
2023/05/08 08:52:49;;;;;;;;;;;;;;;20.22;62.38;96988.41;630509;225;67105;-58
2023/05/08 08:55:18;;;;;;;;;;;;;;;20.22;64.11;96985.73;630274;224;64407;-59
2023/05/08 08:58:00;;;;;;;;;;;;;;;20.21;62.46;96984.91;630444;225;64507;-59
2023/05/08 09:00:29;;;;;;;;;;;;;;;20.22;64.17;96983.06;630506;225;67071;-59
2023/05/08 09:02:57;;;;;;;;;;;;;;;20.22;63.62;96980.40;630414;225;65018;-59
2023/05/08 09:05:25;;;;;;;;;;;;;;;20.22;63.48;96980.40;630566;225;67271;-61
2023/05/08 09:07:56;;;;;;;;;;;;;;;20.21;63.17;96978.78;630502;225;67009;-61
2023/05/08 09:10:24;;;;;;;;;;;;;;;20.21;63.06;96976.11;630466;224;65200;-61
2023/05/08 09:12:52;;;;;;;;;;;;;;;20.20;62.13;96977.98;630505;225;67264;-61
2023/05/08 09:15:20;;;;;;;;;;;;;;;20.22;63.30;96975.06;630518;225;66956;-61
2023/05/08 09:17:47;;;;;;;;;;;;;;;20.20;62.31;96969.98;630496;225;62766;-61
2023/05/08 09:20:15;;;;;;;;;;;;;;;20.21;62.79;96976.11;630609;225;64955;-61
2023/05/08 09:22:43;;;;;;;;;;;;;;;20.20;63.08;96964.64;630530;225;64733;-61
2023/05/08 09:25:10;;;;;;;;;;;;;;;20.20;62.60;96963.84;630500;225;65110;-61
2023/05/08 09:27:38;;;;;;;;;;;;;;;20.21;64.36;96970.77;630486;225;67120;-61
2023/05/08 09:30:07;;;;;;;;;;;;;;;20.18;61.67;96967.56;630494;225;65017;-61
2023/05/08 09:32:35;;;;;;;;;;;;;;;20.20;62.40;96969.19;630547;225;65030;-61
2023/05/08 09:35:03;;;;;;;;;;;;;;;20.20;62.67;96971.85;630511;225;67258;-61
2023/05/08 09:37:31;;;;;;;;;;;;;;;20.20;63.52;96958.52;630517;225;64851;-61
2023/05/08 09:40:17;;;;;;;;;;;;;;;20.20;63.20;96958.52;630497;225;62946;-61
2023/05/08 09:42:45;;;;;;;;;;;;;;;20.20;62.80;96953.17;630482;225;67232;-61
2023/05/08 09:45:14;;;;;;;;;;;;;;;20.18;62.55;96948.89;630551;225;64607;-61
2023/05/08 09:47:43;;;;;;;;;;;;;;;20.19;62.99;96955.05;630113;224;62905;-61
2023/05/08 09:50:10;;;;;;;;;;;;;;;20.20;62.72;96945.17;630381;224;65101;-61
2023/05/08 09:52:38;;;;;;;;;;;;;;;20.19;63.13;96947.05;630519;225;67397;-61
2023/05/08 09:55:08;;;;;;;;;;;;;;;20.18;62.88;96951.55;630485;225;64984;-61
2023/05/08 09:57:38;;;;;;;;;;;;;;;20.18;62.56;96953.42;630515;225;67397;-63
2023/05/08 10:00:07;;;;;;;;;;;;;;;20.18;63.65;96948.89;630555;225;64766;-62
2023/05/08 10:02:37;;;;;;;;;;;;;;;20.18;62.93;96950.77;630537;225;65636;-62
2023/05/08 10:05:06;;;;;;;;;;;;;;;20.18;62.75;96946.22;630503;225;67316;-63
2023/05/08 10:07:36;;;;;;;;;;;;;;;20.18;62.71;96954.22;629945;224;64612;-61
2023/05/08 10:10:04;;;;;;;;;;;;;;;20.17;62.71;96941.96;630536;224;62825;-61
2023/05/08 10:12:32;;;;;;;;;;;;;;;20.17;62.69;96947.30;630623;225;66699;-61
2023/05/08 10:15:00;;;;;;;;;;;;;;;20.18;63.61;96946.22;630609;225;66791;-61
2023/05/08 10:17:46;;;;;;;;;;;;;;;20.17;62.24;96949.97;630553;225;62644;-61
2023/05/08 10:20:14;;;;;;;;;;;;;;;20.19;63.76;96944.37;630551;225;64897;-60
2023/05/08 10:22:43;;;;;;;;;;;;;;;20.18;63.48;96954.22;630595;225;66842;-60
2023/05/08 10:25:12;;;;;;;;;;;;;;;20.17;62.40;96949.97;630531;225;65208;-61
2023/05/08 10:27:44;;;;;;;;;;;;;;;20.17;62.51;96955.30;630543;225;64667;-60
2023/05/08 10:30:13;;;;;;;;;;;;;;;20.18;63.93;96967.56;630561;224;66827;-61
2023/05/08 10:32:45;;;;;;;;;;;;;;;20.18;63.86;96964.90;630534;225;62975;-61
2023/05/08 10:35:12;;;;;;;;;;;;;;;20.17;63.50;96970.52;630572;225;65122;-62
2023/05/08 10:37:41;;;;;;;;;;;;;;;20.18;62.91;96966.77;630542;225;66949;-62
2023/05/08 10:40:09;;;;;;;;;;;;;;;20.17;63.11;96979.31;630550;225;65137;-61
2023/05/08 10:42:37;;;;;;;;;;;;;;;20.17;62.73;96981.19;630483;225;67131;-59
2023/05/08 10:45:05;;;;;;;;;;;;;;;20.17;62.28;96989.19;630479;225;66895;-59
2023/05/08 10:47:49;;;;;;;;;;;;;;;20.17;62.47;96983.86;630544;225;65051;-59
2023/05/08 10:50:19;;;;;;;;;;;;;;;20.18;63.97;96982.78;630338;224;64903;-61
2023/05/08 10:52:48;;;;;;;;;;;;;;;20.17;62.45;96984.66;630543;225;65121;-60
2023/05/08 10:55:17;;;;;;;;;;;;;;;20.16;63.16;96975.05;622018;224;62887;-60
2023/05/08 10:58:02;;;;;;;;;;;;;;;20.16;63.62;96976.90;630495;225;64922;-60
2023/05/08 11:00:34;;;;;;;;;;;;;;;20.16;62.68;96980.39;630641;225;66947;-60
2023/05/08 11:03:06;;;;;;;;;;;;;;;20.17;63.74;96981.98;629762;225;65052;-60
2023/05/08 11:05:35;;;;;;;;;;;;;;;20.16;61.63;96980.39;630509;225;67256;-60
2023/05/08 11:08:02;;;;;;;;;;;;;;;20.16;63.08;96980.39;630088;224;67253;-60
2023/05/08 11:10:31;;;;;;;;;;;;;;;20.16;63.11;96983.06;630523;224;63026;-60
2023/05/08 11:12:59;;;;;;;;;;;;;;;20.17;63.15;96981.19;630530;225;67163;-61
2023/05/08 11:15:38;;;;;;;;;;;;;;;20.17;63.46;96995.33;630533;225;67096;-60
2023/05/08 11:18:14;;;;;;;;;;;;;;;20.16;63.84;96991.06;630564;225;62894;-60
2023/05/08 11:20:41;;;;;;;;;;;;;;;20.15;62.51;97005.45;630331;224;65093;-60
2023/05/08 11:23:27;;;;;;;;;;;;;;;20.17;63.91;97005.20;629751;225;67193;-60
2023/05/08 11:26:05;;;;;;;;;;;;;;;20.17;63.13;97013.20;630557;225;65037;-61
2023/05/08 11:28:34;;;;;;;;;;;;;;;20.17;64.05;97019.34;630506;225;64643;-61
2023/05/08 11:31:06;;;;;;;;;;;;;;;20.16;63.48;97024.93;630510;224;65051;-61
2023/05/08 11:33:36;;;;;;;;;;;;;;;20.16;63.75;97027.59;630514;225;65245;-61
2023/05/08 11:36:17;;;;;;;;;;;;;;;20.15;62.17;97032.14;630499;225;67431;-60
2023/05/08 11:38:46;;;;;;;;;;;;;;;20.16;62.29;97043.60;630533;225;65051;-60
2023/05/08 11:41:24;;;;;;;;;;;;;;;20.16;63.87;97049.77;629749;224;62774;-60
2023/05/08 11:43:53;;;;;;;;;;;;;;;20.17;64.40;97067.37;630554;225;67226;-60
2023/05/08 11:46:21;;;;;;;;;;;;;;;20.15;62.14;97074.83;630596;225;67139;-60
2023/05/08 11:48:49;;;;;;;;;;;;;;;20.16;63.22;97073.78;630528;225;64971;-60
2023/05/08 11:51:18;;;;;;;;;;;;;;;20.17;63.67;97078.04;630575;225;67156;-60
2023/05/08 11:53:46;;;;;;;;;;;;;;;20.17;64.43;97077.25;630506;225;64954;-60
2023/05/08 11:56:14;;;;;;;;;;;;;;;20.16;64.34;97081.78;630559;225;63000;-60
2023/05/08 11:58:41;;;;;;;;;;;;;;;20.16;64.35;97081.78;630584;225;64892;-60
2023/05/08 12:01:09;;;;;;;;;;;;;;;20.17;64.47;97088.71;630550;225;67123;-60
2023/05/08 12:03:36;;;;;;;;;;;;;;;20.16;63.71;97084.45;630528;225;65107;-60
2023/05/08 12:06:04;;;;;;;;;;;;;;;20.16;63.88;97087.13;630555;225;64777;-60
2023/05/08 12:08:31;;;;;;;;;;;;;;;20.16;63.72;97092.45;630505;225;67193;-60
2023/05/08 12:10:59;;;;;;;;;;;;;;;20.17;64.00;97087.92;630540;224;65159;-62
2023/05/08 12:13:27;;;;;;;;;;;;;;;20.16;63.65;97087.13;630561;225;64978;-60
2023/05/08 12:15:58;;;;;;;;;;;;;;;20.16;63.19;97087.13;630571;225;66813;-60
2023/05/08 12:18:28;;;;;;;;;;;;;;;20.16;63.70;97078.29;630523;225;65022;-60
2023/05/08 12:20:59;;;;;;;;;;;;;;;20.16;63.62;97071.11;630490;225;65109;-60
2023/05/08 12:23:28;;;;;;;;;;;;;;;20.16;63.57;97070.28;630479;225;65389;-60
2023/05/08 12:25:57;;;;;;;;;;;;;;;20.16;63.51;97081.78;630566;225;62705;-60
2023/05/08 12:28:24;;;;;;;;;;;;;;;20.15;63.83;97080.16;630509;225;67849;-60
2023/05/08 12:30:52;;;;;;;;;;;;;;;20.15;63.61;97080.16;630546;225;67085;-60
2023/05/08 12:33:20;;;;;;;;;;;;;;;20.17;65.13;97087.92;630502;225;64885;-60
2023/05/08 12:35:48;;;;;;;;;;;;;;;20.16;65.21;97092.45;630522;225;67248;-60
2023/05/08 12:38:15;;;;;;;;;;;;;;;20.15;64.21;97080.16;630565;225;67093;-60
2023/05/08 12:40:44;;;;;;;;;;;;;;;20.15;63.56;97079.37;630567;225;65011;-60
2023/05/08 12:43:12;;;;;;;;;;;;;;;20.15;63.44;97080.16;630516;225;64558;-60
2023/05/08 12:45:40;;;;;;;;;;;;;;;20.17;64.93;97086.05;630552;225;65171;-60
2023/05/08 12:48:09;;;;;;;;;;;;;;;20.16;64.49;97087.13;630485;225;65081;-60
2023/05/08 12:50:37;;;;;;;;;;;;;;;20.15;63.75;97090.84;630575;225;67591;-60
2023/05/08 12:53:06;;;;;;;;;;;;;;;20.16;63.47;97088.96;630521;225;66985;-60
2023/05/08 12:55:34;;;;;;;;;;;;;;;20.16;63.62;97096.97;630544;225;62731;-60
2023/05/08 12:58:06;;;;;;;;;;;;;;;20.16;62.89;97103.13;630541;225;64833;-60